createdAt,value
2022-10-12T00:05:04.323Z,26.17
2022-10-12T00:08:04.982Z,24.60
2022-10-12T00:11:05.056Z,22.23
2022-10-12T00:14:12.313Z,24.17
2022-10-12T00:17:43.636Z,26.23
2022-10-12T00:21:00.457Z,21.00
2022-10-12T00:23:54.155Z,21.10
2022-10-12T00:27:12.054Z,18.40
2022-10-12T00:30:33.502Z,22.10
2022-10-12T00:33:31.806Z,21.30
2022-10-12T00:37:00.353Z,21.00
2022-10-12T00:40:26.977Z,20.60
2022-10-12T00:43:40.082Z,20.90
2022-10-12T00:46:51.773Z,18.70
2022-10-12T00:49:47.840Z,26.27
2022-10-12T00:53:17.330Z,21.60
2022-10-12T00:56:23.365Z,13.93
2022-10-12T00:59:56.032Z,20.73
2022-10-12T01:03:10.229Z,21.70
2022-10-12T01:09:36.163Z,26.80
2022-10-12T01:12:34.991Z,16.60
2022-10-12T01:15:36.347Z,26.03
2022-10-12T01:18:41.408Z,22.20
2022-10-12T01:21:56.094Z,21.60
2022-10-12T01:25:06.356Z,20.07
2022-10-12T01:28:21.983Z,18.07
2022-10-12T01:31:51.503Z,31.60
2022-10-12T01:35:26.906Z,14.70
2022-10-12T01:38:51.525Z,22.23
2022-10-12T01:42:18.971Z,25.10
2022-10-12T01:45:50.488Z,22.83
2022-10-12T01:49:01.692Z,26.77
2022-10-12T01:52:32.207Z,22.23
2022-10-12T01:55:54.696Z,21.33
2022-10-12T01:59:23.939Z,41.80
2022-10-12T02:03:39.099Z,27.93
2022-10-12T02:06:58.856Z,23.47
2022-10-12T02:10:11.214Z,23.60
2022-10-12T02:19:26.089Z,23.83
2022-10-12T02:22:43.075Z,21.00
2022-10-12T02:26:01.128Z,26.43
2022-10-12T02:29:01.503Z,19.83
2022-10-12T02:32:13.463Z,23.03
2022-10-12T02:38:42.974Z,21.83
2022-10-12T02:42:17.025Z,19.27
2022-10-12T02:45:53.687Z,22.40
2022-10-12T02:52:52.076Z,18.07
2022-10-12T02:56:20.661Z,17.60
2022-10-12T02:59:27.578Z,26.70
2022-10-12T03:02:27.348Z,16.60
2022-10-12T03:05:40.550Z,21.90
2022-10-12T03:08:56.721Z,25.13
2022-10-12T03:12:21.025Z,19.37
2022-10-12T03:15:46.874Z,17.13
2022-10-12T03:23:29.939Z,19.97
2022-10-12T03:33:47.834Z,22.53
2022-10-12T03:37:31.111Z,22.00
2022-10-12T03:40:39.572Z,30.60
2022-10-12T03:44:03.138Z,20.73
2022-10-12T03:47:36.188Z,18.20
2022-10-12T03:51:02.671Z,21.23
2022-10-12T03:54:27.382Z,23.47
2022-10-12T03:57:40.781Z,17.43
2022-10-12T04:04:35.626Z,16.00
2022-10-12T04:08:00.846Z,20.60
2022-10-12T04:11:19.781Z,20.73
2022-10-12T04:14:36.591Z,21.43
2022-10-12T04:29:30.397Z,17.43
2022-10-12T04:32:45.394Z,17.10
2022-10-12T04:36:24.247Z,30.03
2022-10-12T04:39:28.599Z,21.57
2022-10-12T04:42:36.186Z,19.13
2022-10-12T04:48:46.902Z,23.70
2022-10-12T04:51:48.351Z,22.20
2022-10-12T04:54:40.260Z,32.77
2022-10-12T04:57:41.885Z,19.33
2022-10-12T05:00:36.550Z,21.00
2022-10-12T05:06:54.496Z,16.83
2022-10-12T05:09:58.756Z,16.27
2022-10-12T05:12:58.104Z,22.93
2022-10-12T05:15:55.409Z,16.60
2022-10-12T05:19:16.833Z,16.87
2022-10-12T05:22:09.839Z,33.77
2022-10-12T05:25:05.057Z,20.43
2022-10-12T05:28:01.896Z,21.13
2022-10-12T05:31:00.237Z,27.80
2022-10-12T05:33:50.227Z,20.30
2022-10-12T05:36:43.919Z,27.97
2022-10-12T05:43:02.942Z,25.43
2022-10-12T05:46:09.117Z,18.07
2022-10-12T05:49:05.968Z,20.00
2022-10-12T05:52:00.675Z,24.27
2022-10-12T05:55:02.985Z,22.40
2022-10-12T05:57:52.766Z,24.40
2022-10-12T06:00:52.102Z,18.70
2022-10-12T06:03:46.517Z,23.10
2022-10-12T06:06:39.409Z,20.27
2022-10-12T06:09:50.818Z,25.10
2022-10-12T06:12:40.829Z,27.33
2022-10-12T06:15:32.723Z,25.83
2022-10-12T06:18:35.120Z,33.10
2022-10-12T06:21:38.559Z,31.10
2022-10-12T06:24:37.902Z,17.80
2022-10-12T06:27:30.819Z,25.73
2022-10-12T06:30:31.061Z,26.67
2022-10-12T06:33:32.066Z,24.07
2022-10-12T06:36:30.032Z,22.23
2022-10-12T06:39:25.743Z,25.60
2022-10-12T06:42:21.308Z,17.73
2022-10-12T06:45:22.014Z,23.90
2022-10-12T06:48:18.254Z,17.53
2022-10-12T06:51:08.350Z,32.83
2022-10-12T06:53:58.703Z,25.73
2022-10-12T06:56:58.815Z,27.57
2022-10-12T06:59:47.545Z,35.40
2022-10-12T07:02:37.073Z,22.00
2022-10-12T07:05:25.925Z,25.93
2022-10-12T07:08:14.529Z,18.50
2022-10-12T07:11:05.324Z,22.97
2022-10-12T07:13:53.553Z,28.40
2022-10-12T07:16:45.164Z,32.70
2022-10-12T07:19:33.534Z,19.67
2022-10-12T07:22:23.330Z,22.87
2022-10-12T07:25:12.623Z,21.57
2022-10-12T07:28:05.357Z,27.20
2022-10-12T07:30:54.723Z,27.17
2022-10-12T07:33:43.131Z,20.47
2022-10-12T07:36:57.493Z,28.10
2022-10-12T07:39:43.282Z,22.13
2022-10-12T07:42:31.705Z,26.30
2022-10-12T07:45:21.687Z,21.33
2022-10-12T07:48:09.890Z,26.70
2022-10-12T07:51:04.942Z,20.37
2022-10-12T07:53:53.774Z,24.63
2022-10-12T07:56:52.662Z,28.83
2022-10-12T07:59:44.302Z,28.90
2022-10-12T08:02:33.974Z,25.87
2022-10-12T08:05:23.415Z,23.63
2022-10-12T08:08:14.223Z,16.50
2022-10-12T08:11:05.814Z,30.07
2022-10-12T08:13:54.494Z,23.13
2022-10-12T08:16:46.824Z,40.00
2022-10-12T08:19:38.166Z,27.73
2022-10-12T08:22:26.618Z,15.83
2022-10-12T08:25:15.075Z,22.57
2022-10-12T08:28:06.480Z,19.90
2022-10-12T08:30:54.744Z,28.47
2022-10-12T08:33:43.313Z,27.50
2022-10-12T08:36:33.170Z,18.00
2022-10-12T08:39:21.952Z,17.83
2022-10-12T08:42:31.632Z,25.00
2022-10-12T08:45:34.076Z,34.20
2022-10-12T08:48:27.372Z,18.83
2022-10-12T08:51:22.170Z,15.60
2022-10-12T08:54:17.579Z,14.93
2022-10-12T08:57:11.332Z,16.80
2022-10-12T09:00:02.939Z,23.10
2022-10-12T09:03:01.763Z,20.47
2022-10-12T09:05:55.551Z,25.80
2022-10-12T09:08:59.436Z,30.87
2022-10-12T09:12:03.037Z,14.33
2022-10-12T09:14:54.850Z,14.23
2022-10-12T09:17:50.596Z,25.23
2022-10-12T09:20:50.227Z,15.13
2022-10-12T09:23:41.494Z,18.93
2022-10-12T09:26:36.090Z,16.50
2022-10-12T09:29:28.938Z,14.80
2022-10-12T09:32:43.142Z,16.10
2022-10-12T09:35:31.413Z,22.03
2022-10-12T09:38:21.457Z,16.57
2022-10-12T09:41:20.291Z,15.70
2022-10-12T09:44:14.643Z,10.87
2022-10-12T09:47:06.377Z,12.47
2022-10-12T09:49:58.455Z,17.23
2022-10-12T09:52:50.463Z,12.83
2022-10-12T09:55:39.196Z,14.27
2022-10-12T09:58:34.358Z,21.33
2022-10-12T10:01:25.149Z,13.30
2022-10-12T10:04:23.938Z,10.33
2022-10-12T10:07:25.877Z,10.97
2022-10-12T10:10:23.971Z,12.13
2022-10-12T10:13:17.451Z,11.30
2022-10-12T10:16:08.042Z,10.93
2022-10-12T10:19:03.110Z,8.50
2022-10-12T10:21:57.035Z,8.90
2022-10-12T10:24:52.262Z,12.00
2022-10-12T10:27:41.322Z,8.50
2022-10-12T10:30:34.001Z,9.73
2022-10-12T10:33:24.718Z,8.20
2022-10-12T10:36:21.389Z,7.67
2022-10-12T10:39:19.498Z,6.67
2022-10-12T10:42:12.147Z,13.17
2022-10-12T10:45:04.908Z,11.60
2022-10-12T10:48:01.228Z,10.30
2022-10-12T10:50:57.469Z,7.53
2022-10-12T10:53:49.278Z,7.10
2022-10-12T10:56:39.069Z,9.13
2022-10-12T10:59:39.038Z,7.10
2022-10-12T11:02:35.378Z,17.20
2022-10-12T11:05:27.924Z,4.73
2022-10-12T11:08:21.572Z,12.07
2022-10-12T11:11:21.840Z,9.57
2022-10-12T11:14:17.299Z,13.10
2022-10-12T11:17:11.867Z,10.07
2022-10-12T11:20:08.611Z,5.63
2022-10-12T11:23:07.885Z,12.20
2022-10-12T11:26:10.157Z,10.10
2022-10-12T11:29:00.617Z,8.90
2022-10-12T11:31:57.491Z,12.27
2022-10-12T11:34:58.629Z,8.50
2022-10-12T11:37:53.015Z,8.53
2022-10-12T11:44:01.745Z,8.17
2022-10-12T11:46:57.913Z,7.93
2022-10-12T11:49:56.032Z,7.80
2022-10-12T11:52:48.323Z,7.87
2022-10-12T11:55:49.754Z,6.80
2022-10-12T11:58:59.971Z,8.17
2022-10-12T12:01:59.621Z,6.77
2022-10-12T12:04:50.354Z,14.13
2022-10-12T12:07:44.721Z,7.77
2022-10-12T12:11:22.791Z,14.00
2022-10-12T12:14:45.907Z,13.10
2022-10-12T12:17:36.810Z,10.23
2022-10-12T12:21:03.946Z,7.40
2022-10-12T12:23:55.201Z,9.03
2022-10-12T12:26:48.836Z,10.03
2022-10-12T12:29:37.410Z,6.60
2022-10-12T12:32:27.105Z,10.73
2022-10-12T12:35:24.031Z,8.17
2022-10-12T12:38:25.457Z,5.30
2022-10-12T12:41:15.958Z,6.73
2022-10-12T12:44:06.210Z,11.90
2022-10-12T12:47:44.550Z,7.93
2022-10-12T12:50:38.760Z,13.07
2022-10-12T12:53:27.025Z,4.37
2022-10-12T12:56:25.042Z,8.03
2022-10-12T12:59:49.692Z,7.90
2022-10-12T13:03:08.116Z,9.70
2022-10-12T13:06:30.262Z,12.03
2022-10-12T13:09:33.998Z,8.23
2022-10-12T13:12:50.490Z,11.97
2022-10-12T13:16:00.862Z,6.80
2022-10-12T13:18:57.642Z,5.37
2022-10-12T13:21:50.355Z,12.43
2022-10-12T13:24:45.899Z,15.70
2022-10-12T13:27:42.222Z,9.60
2022-10-12T13:30:35.666Z,12.23
2022-10-12T13:33:32.457Z,7.30
2022-10-12T13:36:24.862Z,14.77
2022-10-12T13:39:18.803Z,5.00
2022-10-12T13:42:07.933Z,9.90
2022-10-12T13:44:56.525Z,10.07
2022-10-12T13:47:44.819Z,12.33
2022-10-12T13:50:33.019Z,7.77
2022-10-12T13:53:21.318Z,7.60
2022-10-12T13:56:18.732Z,6.70
2022-10-12T13:59:10.641Z,12.17
2022-10-12T14:02:01.929Z,13.60
2022-10-12T14:04:50.494Z,4.67
2022-10-12T14:07:40.799Z,7.40
2022-10-12T14:10:32.575Z,7.63
2022-10-12T14:13:27.861Z,4.93
2022-10-12T14:16:16.182Z,7.40
2022-10-12T14:19:19.628Z,14.33
2022-10-12T14:22:10.960Z,9.77
2022-10-12T14:25:13.884Z,13.83
2022-10-12T14:28:47.271Z,9.03
2022-10-12T14:53:37.964Z,6.20
2022-10-12T15:16:21.226Z,9.43
2022-10-12T15:19:53.044Z,11.83
2022-10-12T15:37:38.353Z,7.17
2022-10-12T15:41:53.227Z,12.00
2022-10-12T16:21:05.873Z,17.73
2022-10-12T16:24:15.012Z,12.60
2022-10-12T16:27:04.144Z,14.83
2022-10-12T16:29:54.091Z,11.30
2022-10-12T16:32:46.843Z,12.30
2022-10-12T16:35:37.352Z,14.73
2022-10-12T16:38:29.541Z,13.30
2022-10-12T16:41:19.180Z,13.67
2022-10-12T16:44:07.675Z,13.50
2022-10-12T16:46:57.561Z,12.77
2022-10-12T16:49:57.525Z,14.43
2022-10-12T16:52:54.840Z,12.77
2022-10-12T16:55:43.671Z,15.60
2022-10-12T16:58:32.263Z,17.60
2022-10-12T17:01:20.541Z,17.63
2022-10-12T17:04:08.761Z,22.20
2022-10-12T17:06:56.934Z,20.23
2022-10-12T17:09:48.762Z,18.43
2022-10-12T17:12:38.690Z,16.50
2022-10-12T17:15:28.935Z,25.77
2022-10-12T17:18:17.408Z,25.47
2022-10-12T17:21:12.340Z,23.47
2022-10-12T17:24:02.275Z,18.63
2022-10-12T17:26:54.375Z,20.10
2022-10-12T17:29:42.545Z,18.30
2022-10-12T17:32:38.288Z,22.60
2022-10-12T17:35:45.405Z,14.20
2022-10-12T17:38:37.197Z,15.10
2022-10-12T17:41:35.028Z,10.37
2022-10-12T17:44:28.363Z,17.13
2022-10-12T17:47:20.636Z,17.30
2022-10-12T17:50:13.556Z,16.00
2022-10-12T17:53:06.342Z,20.33
2022-10-12T17:56:03.873Z,13.40
2022-10-12T17:59:01.419Z,15.40
2022-10-12T18:01:52.893Z,22.73
2022-10-12T18:04:41.676Z,23.97
2022-10-12T18:07:29.994Z,23.70
2022-10-12T18:10:18.708Z,26.63
2022-10-12T18:13:07.624Z,31.10
2022-10-12T18:15:59.922Z,33.00
2022-10-12T18:18:52.499Z,31.23
2022-10-12T18:21:42.374Z,33.20
2022-10-12T18:24:30.645Z,31.80
2022-10-12T18:27:22.726Z,27.85
2022-10-12T18:30:12.191Z,24.33
2022-10-12T18:33:01.009Z,39.73
2022-10-12T18:35:50.538Z,35.27
2022-10-12T18:38:38.724Z,37.00
2022-10-12T18:41:26.980Z,27.07
2022-10-12T18:44:20.256Z,37.27
2022-10-12T18:47:08.858Z,27.77
2022-10-12T18:49:56.965Z,26.20
2022-10-12T18:55:42.032Z,29.23
2022-10-12T18:58:30.429Z,27.60
2022-10-12T19:01:20.687Z,21.40
2022-10-12T19:04:09.103Z,23.13
2022-10-12T19:06:58.713Z,29.13
2022-10-12T19:09:46.848Z,33.40
2022-10-12T19:12:36.463Z,28.10
2022-10-12T19:15:26.234Z,25.60
2022-10-12T19:18:14.489Z,29.47
2022-10-12T19:21:07.110Z,16.07
2022-10-12T19:23:55.860Z,21.10
2022-10-12T19:26:47.109Z,19.20
2022-10-12T19:29:41.315Z,26.93
2022-10-12T19:32:34.091Z,13.47
2022-10-12T19:35:25.073Z,15.53
2022-10-12T19:38:14.910Z,25.43
2022-10-12T19:41:03.338Z,25.87
2022-10-12T19:43:54.204Z,24.10
2022-10-12T19:46:47.322Z,25.93
2022-10-12T19:49:37.339Z,25.80
2022-10-12T19:52:26.869Z,24.13
2022-10-12T19:55:17.456Z,30.80
2022-10-12T19:58:06.133Z,29.80
2022-10-12T20:00:54.396Z,24.20
2022-10-12T20:03:47.808Z,21.30
2022-10-12T20:06:36.610Z,27.83
2022-10-12T20:09:24.948Z,26.40
2022-10-12T20:12:13.029Z,24.60
2022-10-12T20:15:01.451Z,17.30
2022-10-12T20:17:50.931Z,22.33
2022-10-12T20:20:43.671Z,20.37
2022-10-12T20:23:36.419Z,19.00
2022-10-12T20:26:29.777Z,24.37
2022-10-12T20:29:48.450Z,18.97
2022-10-12T20:32:41.887Z,20.60
2022-10-12T20:35:34.324Z,15.50
2022-10-12T20:38:28.207Z,19.43
2022-10-12T20:41:30.137Z,17.90
2022-10-12T20:44:40.182Z,23.33
2022-10-12T20:47:34.173Z,23.17
2022-10-12T20:50:25.951Z,15.20
2022-10-12T20:53:30.034Z,18.90
2022-10-12T20:56:28.930Z,19.67
2022-10-12T20:59:27.047Z,17.80
2022-10-12T21:02:21.417Z,17.17
2022-10-12T21:05:16.991Z,21.83
2022-10-12T21:08:16.265Z,24.50
2022-10-12T21:11:10.890Z,23.20
2022-10-12T21:14:02.733Z,20.77
2022-10-12T21:16:58.351Z,19.57
2022-10-12T21:20:02.712Z,24.83
2022-10-12T21:22:55.138Z,28.30
2022-10-12T21:25:48.482Z,20.47
2022-10-12T21:28:38.159Z,23.80
2022-10-12T21:31:38.990Z,25.00
2022-10-12T21:34:41.820Z,28.27
2022-10-12T21:37:35.322Z,20.70
2022-10-12T21:40:33.451Z,18.53
2022-10-12T21:43:37.820Z,22.97
2022-10-12T21:46:35.480Z,19.87
2022-10-12T21:49:43.155Z,21.87
2022-10-12T21:52:35.019Z,19.53
2022-10-12T21:55:43.383Z,23.90
2022-10-12T21:58:53.466Z,32.37
2022-10-12T22:02:09.423Z,20.80
2022-10-12T22:05:19.706Z,19.70
2022-10-12T22:08:37.519Z,23.30
2022-10-12T22:11:48.157Z,23.00
2022-10-12T22:14:57.085Z,16.83
2022-10-12T22:21:22.145Z,21.07
2022-10-12T22:24:26.510Z,15.57
2022-10-12T22:27:37.039Z,24.10
2022-10-12T22:30:51.722Z,17.70
2022-10-12T22:34:01.607Z,12.17
2022-10-12T22:40:34.629Z,18.83
2022-10-12T22:43:44.324Z,22.33
2022-10-12T22:47:08.546Z,24.00
2022-10-12T22:50:27.508Z,27.50
2022-10-12T22:56:57.859Z,17.80
2022-10-12T23:00:13.825Z,18.03
2022-10-12T23:03:35.348Z,17.00
2022-10-12T23:06:37.837Z,13.73
2022-10-12T23:09:49.948Z,17.93
2022-10-12T23:12:52.969Z,19.17
2022-10-12T23:15:57.942Z,20.63
2022-10-12T23:19:05.132Z,21.73
2022-10-12T23:22:09.465Z,22.93
2022-10-12T23:25:31.820Z,20.63
2022-10-12T23:28:23.670Z,18.97
2022-10-12T23:31:22.270Z,15.10
2022-10-12T23:34:19.865Z,18.10
2022-10-12T23:37:18.287Z,12.30
2022-10-12T23:40:10.086Z,16.60
2022-10-12T23:43:02.949Z,25.07
2022-10-12T23:45:58.918Z,13.07
2022-10-12T23:48:53.014Z,21.50
2022-10-12T23:51:45.369Z,20.63
2022-10-12T23:54:44.851Z,17.63
2022-10-12T23:57:46.589Z,15.57
